createdAt,value
2023-05-19T00:01:31.256Z,55.10
2023-05-19T00:04:18.464Z,55.21
2023-05-19T00:07:08.383Z,55.26
2023-05-19T00:09:55.106Z,55.59
2023-05-19T00:12:42.981Z,55.58
2023-05-19T00:15:29.653Z,56.04
2023-05-19T00:18:16.823Z,56.09
2023-05-19T00:21:03.376Z,56.23
2023-05-19T00:23:50.018Z,56.87
2023-05-19T00:26:37.251Z,56.88
2023-05-19T00:29:24.530Z,57.01
2023-05-19T00:32:12.187Z,57.05
2023-05-19T00:34:59.912Z,56.97
2023-05-19T00:37:46.725Z,57.19
2023-05-19T00:40:36.293Z,57.40
2023-05-19T00:43:22.931Z,57.58
2023-05-19T00:46:11.071Z,57.72
2023-05-19T00:48:57.626Z,57.58
2023-05-19T00:51:44.319Z,57.90
2023-05-19T00:54:31.428Z,58.07
2023-05-19T00:57:18.053Z,58.24
2023-05-19T01:00:05.785Z,58.10
2023-05-19T01:02:52.622Z,58.39
2023-05-19T01:05:41.786Z,58.57
2023-05-19T01:08:31.683Z,58.54
2023-05-19T01:11:17.888Z,58.57
2023-05-19T01:14:04.380Z,58.69
2023-05-19T01:16:57.455Z,58.63
2023-05-19T01:19:56.374Z,58.74
2023-05-19T01:23:05.183Z,58.93
2023-05-19T01:25:51.652Z,59.08
2023-05-19T01:28:49.916Z,59.33
2023-05-19T01:31:38.572Z,59.46
2023-05-19T01:34:27.133Z,59.43
2023-05-19T01:37:16.267Z,59.47
2023-05-19T01:40:02.774Z,59.68
2023-05-19T01:42:54.667Z,59.86
2023-05-19T01:45:42.989Z,59.84
2023-05-19T01:48:30.738Z,59.76
2023-05-19T01:51:17.377Z,59.86
2023-05-19T01:54:03.878Z,59.92
2023-05-19T01:57:04.283Z,59.99
2023-05-19T02:00:20.544Z,60.18
2023-05-19T02:03:22.706Z,60.24
2023-05-19T02:06:37.086Z,60.36
2023-05-19T02:09:33.388Z,60.77
2023-05-19T02:12:34.619Z,60.78
2023-05-19T02:15:25.970Z,60.86
2023-05-19T02:18:14.108Z,61.05
2023-05-19T02:21:02.376Z,60.83
2023-05-19T02:23:48.963Z,60.83
2023-05-19T02:26:35.243Z,60.85
2023-05-19T02:29:23.865Z,60.98
2023-05-19T02:32:11.842Z,61.08
2023-05-19T02:35:00.191Z,61.20
2023-05-19T02:37:46.685Z,61.29
2023-05-19T02:40:34.099Z,61.25
2023-05-19T02:43:20.946Z,61.51
2023-05-19T02:46:07.488Z,61.50
2023-05-19T02:48:54.052Z,61.42
2023-05-19T02:51:40.781Z,61.69
2023-05-19T02:54:27.169Z,61.76
2023-05-19T02:57:13.739Z,62.09
2023-05-19T03:00:00.778Z,62.11
2023-05-19T03:02:47.547Z,62.01
2023-05-19T03:05:33.934Z,61.98
2023-05-19T03:08:20.791Z,61.89
2023-05-19T03:11:07.381Z,61.94
2023-05-19T03:13:53.812Z,61.90
2023-05-19T03:16:42.268Z,62.06
2023-05-19T03:19:29.277Z,61.88
2023-05-19T03:22:15.740Z,62.01
2023-05-19T03:25:02.492Z,61.97
2023-05-19T03:27:49.262Z,62.10
2023-05-19T03:30:35.716Z,62.14
2023-05-19T03:33:29.983Z,62.07
2023-05-19T03:36:17.517Z,62.14
2023-05-19T03:39:04.463Z,61.97
2023-05-19T03:41:51.401Z,61.91
2023-05-19T03:44:37.990Z,61.89
2023-05-19T03:47:24.951Z,61.71
2023-05-19T03:50:22.857Z,61.69
2023-05-19T03:53:16.220Z,61.50
2023-05-19T03:56:02.934Z,61.36
2023-05-19T03:58:50.061Z,60.98
2023-05-19T04:01:36.736Z,60.82
2023-05-19T04:04:23.654Z,60.62
2023-05-19T04:07:10.450Z,60.53
2023-05-19T04:09:57.493Z,60.42
2023-05-19T04:12:43.868Z,60.09
2023-05-19T04:15:30.370Z,60.13
2023-05-19T04:18:16.928Z,59.75
2023-05-19T04:21:03.777Z,59.33
2023-05-19T04:23:50.367Z,59.58
2023-05-19T04:26:38.443Z,59.00
2023-05-19T04:29:24.803Z,58.75
2023-05-19T04:32:11.751Z,58.79
2023-05-19T04:34:59.049Z,58.44
2023-05-19T04:37:46.382Z,58.31
2023-05-19T04:40:33.840Z,57.65
2023-05-19T04:43:22.357Z,57.60
2023-05-19T04:46:13.191Z,57.78
2023-05-19T04:49:01.365Z,57.60
2023-05-19T04:51:51.079Z,57.11
2023-05-19T04:54:41.960Z,56.67
2023-05-19T04:57:30.109Z,56.42
2023-05-19T05:00:17.432Z,56.01
2023-05-19T05:03:24.472Z,55.47
2023-05-19T05:06:11.732Z,55.41
2023-05-19T05:08:58.127Z,55.09
2023-05-19T05:11:45.169Z,54.86
2023-05-19T05:14:31.774Z,54.65
2023-05-19T05:17:19.137Z,54.21
2023-05-19T05:20:06.978Z,53.84
2023-05-19T05:22:54.145Z,53.50
2023-05-19T05:25:41.812Z,53.32
2023-05-19T05:28:28.514Z,52.57
2023-05-19T05:31:16.232Z,52.06
2023-05-19T05:34:03.153Z,51.45
2023-05-19T05:36:51.174Z,50.97
2023-05-19T05:39:38.120Z,50.78
2023-05-19T05:42:25.321Z,50.62
2023-05-19T05:45:12.915Z,50.20
2023-05-19T05:48:01.003Z,50.10
2023-05-19T05:50:49.125Z,49.89
2023-05-19T05:53:43.364Z,49.87
2023-05-19T05:56:30.791Z,49.59
2023-05-19T05:59:17.795Z,49.40
2023-05-19T06:02:05.176Z,49.11
2023-05-19T06:04:54.252Z,49.01
2023-05-19T06:07:41.659Z,49.13
2023-05-19T06:10:29.379Z,48.90
2023-05-19T06:13:18.923Z,48.56
2023-05-19T06:16:06.241Z,48.53
2023-05-19T06:18:59.045Z,48.36
2023-05-19T06:21:45.861Z,48.37
2023-05-19T06:24:32.750Z,48.12
2023-05-19T06:27:19.468Z,48.16
2023-05-19T06:30:08.797Z,48.22
2023-05-19T06:33:01.740Z,48.28
2023-05-19T06:35:48.400Z,48.52
2023-05-19T06:38:34.861Z,48.17
2023-05-19T06:41:21.968Z,48.02
2023-05-19T06:44:11.634Z,48.22
2023-05-19T06:46:58.191Z,47.78
2023-05-19T06:49:45.828Z,47.07
2023-05-19T06:52:33.268Z,46.61
2023-05-19T06:55:20.210Z,46.51
2023-05-19T06:58:08.364Z,45.89
2023-05-19T07:00:54.933Z,46.24
2023-05-19T07:03:42.575Z,46.07
2023-05-19T07:06:31.422Z,45.35
2023-05-19T07:09:18.333Z,45.11
2023-05-19T07:12:06.411Z,45.33
2023-05-19T07:14:53.687Z,44.50
2023-05-19T07:17:40.507Z,44.80
2023-05-19T07:20:28.458Z,44.81
2023-05-19T07:23:17.362Z,45.08
2023-05-19T07:26:05.761Z,44.78
2023-05-19T07:28:52.801Z,44.39
2023-05-19T07:31:39.427Z,44.36
2023-05-19T07:34:26.444Z,44.44
2023-05-19T07:37:12.709Z,44.19
2023-05-19T07:39:59.443Z,44.19
2023-05-19T07:42:46.058Z,43.99
2023-05-19T07:45:32.577Z,43.99
2023-05-19T07:48:22.503Z,43.48
2023-05-19T07:51:10.295Z,43.56
2023-05-19T07:53:57.508Z,43.47
2023-05-19T07:56:43.830Z,43.59
2023-05-19T07:59:30.491Z,43.50
2023-05-19T08:02:17.333Z,43.34
2023-05-19T08:05:04.652Z,43.56
2023-05-19T08:07:51.765Z,43.35
2023-05-19T08:10:38.309Z,43.27
2023-05-19T08:13:24.615Z,43.02
2023-05-19T08:16:10.762Z,43.01
2023-05-19T08:18:57.235Z,43.02
2023-05-19T08:21:44.741Z,43.02
2023-05-19T08:24:32.878Z,42.98
2023-05-19T08:27:19.418Z,42.93
2023-05-19T08:30:06.724Z,42.44
2023-05-19T08:32:52.967Z,42.29
2023-05-19T08:35:39.553Z,42.41
2023-05-19T08:38:26.637Z,42.20
2023-05-19T08:41:13.139Z,42.39
2023-05-19T08:43:59.806Z,42.36
2023-05-19T08:46:47.835Z,42.29
2023-05-19T08:49:42.384Z,42.28
2023-05-19T08:52:42.502Z,42.01
2023-05-19T08:55:42.156Z,41.97
2023-05-19T08:58:29.282Z,41.97
2023-05-19T09:01:19.260Z,42.01
2023-05-19T09:04:07.256Z,41.51
2023-05-19T09:06:54.190Z,41.07
2023-05-19T09:09:43.754Z,40.70
2023-05-19T09:12:30.368Z,40.74
2023-05-19T09:15:20.894Z,40.73
2023-05-19T09:18:12.666Z,40.34
2023-05-19T09:21:03.141Z,40.49
2023-05-19T09:23:50.148Z,40.54
2023-05-19T09:26:41.262Z,39.97
2023-05-19T09:29:27.861Z,38.79
2023-05-19T09:32:25.149Z,38.47
2023-05-19T09:35:17.183Z,38.63
2023-05-19T09:38:03.791Z,38.43
2023-05-19T09:40:50.068Z,37.79
2023-05-19T09:43:36.854Z,37.53
2023-05-19T09:46:29.935Z,37.42
2023-05-19T09:49:31.320Z,37.07
2023-05-19T09:52:18.312Z,36.72
2023-05-19T09:55:06.869Z,36.60
2023-05-19T09:57:56.240Z,36.35
2023-05-19T10:00:43.322Z,36.31
2023-05-19T10:03:32.583Z,36.29
2023-05-19T10:06:19.994Z,36.35
2023-05-19T10:09:06.375Z,36.19
2023-05-19T10:11:56.628Z,35.84
2023-05-19T10:14:43.349Z,36.62
2023-05-19T10:17:30.519Z,36.49
2023-05-19T10:20:17.895Z,36.44
2023-05-19T10:23:04.366Z,36.19
2023-05-19T10:25:55.456Z,36.11
2023-05-19T10:28:44.590Z,36.07
2023-05-19T10:31:34.182Z,36.57
2023-05-19T10:34:33.325Z,36.30
2023-05-19T10:37:37.762Z,36.19
2023-05-19T10:40:37.125Z,35.66
2023-05-19T10:43:54.570Z,35.49
2023-05-19T10:46:43.066Z,35.56
2023-05-19T10:49:35.572Z,35.68
2023-05-19T10:52:25.704Z,35.16
2023-05-19T10:55:17.713Z,35.07
2023-05-19T10:58:04.614Z,34.89
2023-05-19T11:01:00.697Z,34.68
2023-05-19T11:03:57.318Z,34.87
2023-05-19T11:06:51.931Z,35.36
2023-05-19T11:09:40.931Z,35.48
2023-05-19T11:12:27.957Z,36.18
2023-05-19T11:15:15.722Z,36.52
2023-05-19T11:18:04.577Z,37.15
2023-05-19T11:20:58.397Z,37.80
2023-05-19T11:23:45.227Z,38.80
2023-05-19T11:26:43.325Z,40.46
2023-05-19T11:29:32.877Z,42.30
2023-05-19T11:32:22.780Z,43.32
2023-05-19T11:35:10.267Z,43.71
2023-05-19T11:37:57.566Z,44.79
2023-05-19T11:40:44.497Z,44.92
2023-05-19T11:43:31.216Z,45.58
2023-05-19T11:46:18.083Z,46.11
2023-05-19T11:49:05.838Z,46.32
2023-05-19T11:51:52.528Z,46.44
2023-05-19T11:54:41.902Z,46.41
2023-05-19T11:57:28.507Z,47.56
2023-05-19T12:00:15.765Z,47.28
2023-05-19T12:03:02.025Z,48.79
2023-05-19T12:05:49.692Z,48.97
2023-05-19T12:08:37.540Z,49.72
2023-05-19T12:11:24.411Z,50.27
2023-05-19T12:14:12.323Z,50.47
2023-05-19T12:16:59.510Z,50.68
2023-05-19T12:19:48.061Z,50.95
2023-05-19T12:22:35.490Z,51.34
2023-05-19T12:25:23.263Z,51.21
2023-05-19T12:28:10.075Z,51.09
2023-05-19T12:30:58.534Z,51.10
2023-05-19T12:33:48.633Z,50.82
2023-05-19T12:36:35.367Z,50.76
2023-05-19T12:39:23.367Z,50.86
2023-05-19T12:42:12.458Z,50.52
2023-05-19T12:45:01.567Z,50.07
2023-05-19T12:47:51.358Z,49.94
2023-05-19T12:50:38.433Z,49.42
2023-05-19T12:53:27.648Z,48.66
2023-05-19T12:56:15.528Z,48.93
2023-05-19T12:59:02.331Z,48.69
2023-05-19T13:01:59.361Z,48.49
2023-05-19T13:04:46.244Z,48.32
2023-05-19T13:07:33.249Z,49.10
2023-05-19T13:10:20.726Z,49.19
2023-05-19T13:13:08.440Z,49.44
2023-05-19T13:15:55.675Z,50.28
2023-05-19T13:18:42.478Z,50.21
2023-05-19T13:21:28.628Z,50.42
2023-05-19T13:24:15.624Z,51.31
2023-05-19T13:27:03.292Z,50.71
2023-05-19T13:29:49.765Z,51.26
2023-05-19T13:32:36.269Z,52.31
2023-05-19T13:35:23.341Z,52.78
2023-05-19T13:38:10.826Z,53.67
2023-05-19T13:40:58.074Z,53.51
2023-05-19T13:43:44.799Z,54.00
2023-05-19T13:46:44.170Z,54.72
2023-05-19T13:49:31.611Z,54.50
2023-05-19T13:52:19.099Z,55.15
2023-05-19T13:55:07.543Z,55.61
2023-05-19T13:57:54.143Z,55.30
2023-05-19T14:00:41.591Z,54.77
2023-05-19T14:03:28.128Z,55.44
2023-05-19T14:06:14.751Z,55.62
2023-05-19T14:09:01.504Z,55.19
2023-05-19T14:11:47.891Z,55.11
2023-05-19T14:14:34.277Z,54.83
2023-05-19T14:17:21.205Z,54.90
2023-05-19T14:20:08.496Z,54.05
2023-05-19T14:22:55.592Z,53.73
2023-05-19T14:25:42.847Z,54.01
2023-05-19T14:28:29.711Z,53.64
2023-05-19T14:31:16.368Z,53.37
2023-05-19T14:34:03.185Z,53.06
2023-05-19T14:36:49.717Z,53.70
2023-05-19T14:39:36.141Z,53.86
2023-05-19T14:42:23.454Z,54.06
2023-05-19T14:45:11.213Z,53.61
2023-05-19T14:47:58.255Z,54.24
2023-05-19T14:50:44.821Z,54.28
2023-05-19T14:53:31.305Z,54.63
2023-05-19T14:56:17.936Z,54.26
2023-05-19T14:59:05.032Z,54.51
2023-05-19T15:01:51.867Z,55.02
2023-05-19T15:04:38.455Z,55.08
2023-05-19T15:07:25.603Z,55.19
2023-05-19T15:10:12.421Z,55.01
2023-05-19T15:13:00.614Z,55.90
2023-05-19T15:15:46.869Z,56.16
2023-05-19T15:18:34.231Z,56.57
2023-05-19T15:21:20.867Z,56.98
2023-05-19T15:24:07.327Z,56.55
2023-05-19T15:26:55.521Z,57.03
2023-05-19T15:29:41.896Z,56.90
2023-05-19T15:32:28.574Z,57.87
2023-05-19T15:35:15.218Z,57.97
2023-05-19T15:38:06.124Z,57.51
2023-05-19T15:40:53.518Z,57.64
2023-05-19T15:43:41.462Z,58.00
2023-05-19T15:46:28.937Z,57.98
2023-05-19T15:49:15.482Z,57.68
2023-05-19T15:52:03.155Z,57.82
2023-05-19T15:54:49.896Z,57.98
2023-05-19T15:57:36.349Z,57.99
2023-05-19T16:00:23.661Z,58.12
2023-05-19T16:03:10.485Z,58.57
2023-05-19T16:05:57.066Z,58.51
2023-05-19T16:08:43.678Z,58.85
2023-05-19T16:11:30.118Z,58.79
2023-05-19T16:14:16.811Z,59.13
2023-05-19T16:17:05.116Z,59.13
2023-05-19T16:19:51.652Z,59.34
2023-05-19T16:22:38.757Z,59.43
2023-05-19T16:25:25.957Z,59.65
2023-05-19T16:28:12.377Z,59.47
2023-05-19T16:31:00.339Z,60.09
2023-05-19T16:33:46.989Z,60.05
2023-05-19T16:36:33.478Z,60.06
2023-05-19T16:39:20.114Z,60.01
2023-05-19T16:42:07.032Z,60.58
2023-05-19T16:44:53.782Z,60.85
2023-05-19T16:47:40.735Z,60.60
2023-05-19T16:50:27.690Z,61.26
2023-05-19T16:53:14.353Z,61.07
2023-05-19T16:56:00.948Z,61.07
2023-05-19T16:58:47.410Z,61.84
2023-05-19T17:01:34.187Z,61.64
2023-05-19T17:04:21.048Z,61.46
2023-05-19T17:07:07.920Z,61.64
2023-05-19T17:09:55.973Z,61.73
2023-05-19T17:12:42.603Z,61.92
2023-05-19T17:15:29.129Z,61.66
2023-05-19T17:18:16.177Z,61.77
2023-05-19T17:21:05.033Z,61.99
2023-05-19T17:23:51.941Z,61.98
2023-05-19T17:26:39.797Z,61.92
2023-05-19T17:29:27.968Z,62.34
2023-05-19T17:32:14.501Z,62.12
2023-05-19T17:35:03.364Z,61.96
2023-05-19T17:37:50.164Z,61.91
2023-05-19T17:40:37.054Z,62.17
2023-05-19T17:43:23.730Z,62.40
2023-05-19T17:46:12.038Z,62.24
2023-05-19T17:48:59.035Z,62.42
2023-05-19T17:51:45.967Z,62.52
2023-05-19T17:54:33.027Z,62.44
2023-05-19T17:57:24.686Z,62.34
2023-05-19T18:00:12.855Z,62.51
2023-05-19T18:02:59.999Z,62.52
2023-05-19T18:05:48.162Z,62.54
2023-05-19T18:08:37.605Z,62.69
2023-05-19T18:11:24.211Z,62.61
2023-05-19T18:14:11.122Z,62.79
2023-05-19T18:16:58.288Z,63.16
2023-05-19T18:19:44.970Z,63.26
2023-05-19T18:22:31.475Z,63.32
2023-05-19T18:25:20.052Z,63.51
2023-05-19T18:28:06.541Z,63.37
2023-05-19T18:31:04.952Z,63.49
2023-05-19T18:33:51.342Z,63.47
2023-05-19T18:36:38.704Z,63.43
2023-05-19T18:39:27.299Z,63.48
2023-05-19T18:42:15.543Z,63.71
2023-05-19T18:45:01.985Z,63.99
2023-05-19T18:47:48.910Z,63.90
2023-05-19T18:50:36.564Z,64.08
2023-05-19T18:53:25.381Z,64.12
2023-05-19T18:56:12.799Z,64.35
2023-05-19T18:58:59.415Z,64.34
2023-05-19T19:01:46.035Z,64.51
2023-05-19T19:04:32.977Z,64.81
2023-05-19T19:07:19.685Z,64.79
2023-05-19T19:10:09.058Z,64.84
2023-05-19T19:12:55.354Z,65.08
2023-05-19T19:15:42.151Z,65.05
2023-05-19T19:18:28.611Z,65.08
2023-05-19T19:21:15.446Z,65.40
2023-05-19T19:24:02.173Z,65.43
2023-05-19T19:26:48.555Z,65.42
2023-05-19T19:29:35.562Z,65.36
2023-05-19T19:32:23.070Z,65.56
2023-05-19T19:35:09.721Z,65.72
2023-05-19T19:37:56.702Z,65.73
2023-05-19T19:40:43.630Z,66.17
2023-05-19T19:43:30.625Z,66.22
2023-05-19T19:46:17.150Z,66.16
2023-05-19T19:49:04.095Z,66.05
2023-05-19T19:51:51.396Z,66.13
2023-05-19T19:54:38.125Z,66.30
2023-05-19T19:57:25.570Z,66.44
2023-05-19T20:00:13.146Z,66.56
2023-05-19T20:03:04.463Z,66.51
2023-05-19T20:05:53.895Z,66.73
2023-05-19T20:08:40.527Z,66.69
2023-05-19T20:11:27.594Z,66.55
2023-05-19T20:14:13.995Z,66.75
2023-05-19T20:17:00.549Z,66.88
2023-05-19T20:19:48.324Z,66.87
2023-05-19T20:22:34.637Z,67.05
2023-05-19T20:25:21.355Z,67.08
2023-05-19T20:28:08.612Z,67.15
2023-05-19T20:30:55.307Z,67.17
2023-05-19T20:33:42.053Z,67.01
2023-05-19T20:36:29.167Z,67.11
2023-05-19T20:39:15.669Z,67.23
2023-05-19T20:42:01.950Z,67.40
2023-05-19T20:44:48.443Z,67.29
2023-05-19T20:47:35.637Z,67.44
2023-05-19T20:50:22.417Z,67.40
2023-05-19T20:53:09.368Z,67.53
2023-05-19T20:55:56.536Z,67.56
2023-05-19T20:58:43.165Z,67.66
2023-05-19T21:01:30.072Z,67.76
2023-05-19T21:04:16.580Z,67.80
2023-05-19T21:07:03.590Z,67.88
2023-05-19T21:09:51.602Z,67.90
2023-05-19T21:12:38.731Z,67.92
2023-05-19T21:15:25.290Z,67.91
2023-05-19T21:18:12.639Z,68.00
2023-05-19T21:21:02.943Z,68.09
2023-05-19T21:23:49.510Z,68.17
2023-05-19T21:26:36.085Z,68.14
2023-05-19T21:29:22.490Z,68.25
2023-05-19T21:32:09.385Z,68.35
2023-05-19T21:34:55.881Z,68.23
2023-05-19T21:37:42.251Z,68.15
2023-05-19T21:40:29.060Z,68.20
2023-05-19T21:43:16.048Z,68.29
2023-05-19T21:46:03.164Z,68.59
2023-05-19T21:48:49.735Z,68.42
2023-05-19T21:51:36.848Z,68.46
2023-05-19T21:54:23.510Z,68.46
2023-05-19T21:57:12.376Z,68.47
2023-05-19T21:59:58.959Z,68.45
2023-05-19T22:02:45.700Z,68.52
2023-05-19T22:05:35.198Z,68.62
2023-05-19T22:08:22.814Z,68.64
2023-05-19T22:11:09.555Z,68.66
2023-05-19T22:13:56.386Z,68.72
2023-05-19T22:16:43.728Z,68.80
2023-05-19T22:19:30.417Z,68.80
2023-05-19T22:22:17.452Z,68.84
2023-05-19T22:25:04.058Z,68.82
2023-05-19T22:27:50.742Z,68.91
2023-05-19T22:30:41.122Z,68.99
2023-05-19T22:33:27.967Z,68.94
2023-05-19T22:36:16.230Z,69.03
2023-05-19T22:39:02.556Z,69.18
2023-05-19T22:41:49.149Z,69.13
2023-05-19T22:44:35.825Z,69.08
2023-05-19T22:47:22.144Z,69.08
2023-05-19T22:50:10.179Z,69.10
2023-05-19T22:52:56.575Z,69.25
2023-05-19T22:55:43.190Z,69.44
2023-05-19T22:58:30.227Z,69.48
2023-05-19T23:01:17.197Z,69.52
2023-05-19T23:04:04.141Z,69.42
2023-05-19T23:06:50.975Z,69.51
2023-05-19T23:09:37.541Z,69.52
2023-05-19T23:12:24.278Z,69.66
2023-05-19T23:15:11.293Z,69.64
2023-05-19T23:17:57.928Z,69.89
2023-05-19T23:20:44.853Z,69.98
2023-05-19T23:23:31.519Z,70.13
2023-05-19T23:26:17.982Z,70.03
2023-05-19T23:29:04.667Z,70.06
2023-05-19T23:31:51.202Z,70.08
2023-05-19T23:34:38.047Z,70.07
2023-05-19T23:37:24.611Z,70.10
2023-05-19T23:40:12.065Z,70.16
2023-05-19T23:42:58.537Z,70.28
2023-05-19T23:45:45.202Z,70.30
2023-05-19T23:48:31.624Z,70.44
2023-05-19T23:51:17.963Z,70.44
2023-05-19T23:54:04.555Z,70.41
2023-05-19T23:56:51.361Z,70.46
2023-05-19T23:59:37.791Z,70.60
